createdAt,value
2023-01-26T00:07:28.623Z,6
2023-01-26T00:17:28.459Z,2
2023-01-26T00:27:28.410Z,1
2023-01-26T00:37:28.330Z,1
2023-01-26T00:47:28.254Z,1
2023-01-26T00:57:28.290Z,1
2023-01-26T01:07:28.106Z,1
2023-01-26T01:17:28.049Z,1
2023-01-26T01:27:27.967Z,1
2023-01-26T01:37:28.017Z,1
2023-01-26T01:47:28.311Z,1
2023-01-26T01:57:27.885Z,1
2023-01-26T02:07:27.673Z,1
2023-01-26T02:17:27.588Z,1
2023-01-26T02:27:27.607Z,1
2023-01-26T02:37:27.487Z,1
2023-01-26T02:47:27.353Z,1
2023-01-26T02:57:27.333Z,1
2023-01-26T03:07:27.261Z,1
2023-01-26T03:17:27.157Z,1
2023-01-26T03:27:27.076Z,1
2023-01-26T03:37:27.066Z,1
2023-01-26T03:47:26.926Z,1
2023-01-26T03:57:26.892Z,1
2023-01-26T04:07:26.929Z,1
2023-01-26T04:17:26.811Z,1
2023-01-26T04:27:26.686Z,1
2023-01-26T04:37:26.601Z,1
2023-01-26T04:47:29.106Z,1
2023-01-26T04:57:26.437Z,1
2023-01-26T05:07:26.413Z,1
2023-01-26T05:17:26.386Z,1
2023-01-26T05:27:26.313Z,1
2023-01-26T05:37:26.186Z,1
2023-01-26T05:47:26.048Z,1
2023-01-26T05:57:26.008Z,4
2023-01-26T06:07:25.892Z,10
2023-01-26T06:17:25.854Z,16
2023-01-26T06:27:25.805Z,16
2023-01-26T06:37:25.683Z,15
2023-01-26T06:47:25.833Z,18
2023-01-26T06:57:25.518Z,25
2023-01-26T07:07:25.497Z,24
2023-01-26T07:17:25.378Z,28
2023-01-26T07:27:25.338Z,33
2023-01-26T07:37:25.233Z,32
2023-01-26T07:47:25.160Z,21
2023-01-26T07:57:25.193Z,16
2023-01-26T08:07:25.013Z,19
2023-01-26T08:17:24.925Z,22
2023-01-26T08:27:24.884Z,23
2023-01-26T08:37:24.875Z,19
2023-01-26T08:47:24.721Z,20
2023-01-26T08:57:24.691Z,23
2023-01-26T09:07:24.580Z,25
2023-01-26T09:17:24.638Z,26
2023-01-26T09:27:24.569Z,30
2023-01-26T09:37:24.374Z,25
2023-01-26T09:47:24.443Z,26
2023-01-26T09:57:24.257Z,18
2023-01-26T10:07:24.528Z,10
2023-01-26T10:17:24.423Z,16
2023-01-26T10:27:24.021Z,16
2023-01-26T10:37:23.940Z,24
2023-01-26T10:47:23.865Z,28
2023-01-26T10:57:23.804Z,35
2023-01-26T11:07:23.693Z,44
2023-01-26T11:17:23.757Z,52
2023-01-26T11:27:23.706Z,59
2023-01-26T11:37:23.522Z,54
2023-01-26T11:47:23.400Z,55
2023-01-26T11:57:23.351Z,47
2023-01-26T12:07:23.624Z,43
2023-01-26T12:17:23.274Z,39
2023-01-26T12:27:23.160Z,40
2023-01-26T12:37:23.041Z,44
2023-01-26T12:47:22.956Z,39
2023-01-26T12:57:22.905Z,40
2023-01-26T13:07:22.811Z,39
2023-01-26T13:17:22.769Z,33
2023-01-26T13:27:22.695Z,29
2023-01-26T13:37:22.653Z,31
2023-01-26T13:47:22.519Z,25
2023-01-26T13:57:23.450Z,29
2023-01-26T14:07:22.463Z,27
2023-01-26T14:17:22.297Z,18
2023-01-26T14:27:22.224Z,29
2023-01-26T14:37:22.180Z,22
2023-01-26T14:47:22.089Z,32
2023-01-26T14:57:22.040Z,29
2023-01-26T15:07:22.079Z,35
2023-01-26T15:17:21.889Z,35
2023-01-26T15:27:22.013Z,26
2023-01-26T15:37:21.764Z,28
2023-01-26T15:47:21.636Z,34
2023-01-26T15:57:21.558Z,38
2023-01-26T16:07:21.482Z,36
2023-01-26T16:17:21.450Z,42
2023-01-26T16:27:21.345Z,40
2023-01-26T16:37:21.326Z,41
2023-01-26T16:47:21.314Z,40
2023-01-26T16:57:21.122Z,33
2023-01-26T17:07:21.090Z,36
2023-01-26T17:17:20.964Z,37
2023-01-26T17:27:20.954Z,39
2023-01-26T17:37:20.826Z,30
2023-01-26T17:47:20.799Z,42
2023-01-26T17:57:20.761Z,40
2023-01-26T18:07:20.719Z,42
2023-01-26T18:17:20.509Z,32
2023-01-26T18:27:20.511Z,43
2023-01-26T18:37:20.400Z,21
2023-01-26T18:47:20.293Z,33
2023-01-26T18:57:20.267Z,22
2023-01-26T19:07:20.143Z,22
2023-01-26T19:17:20.065Z,11
2023-01-26T19:27:20.047Z,15
2023-01-26T19:37:19.936Z,20
2023-01-26T19:47:19.879Z,7
2023-01-26T19:57:19.931Z,22
2023-01-26T20:07:19.738Z,12
2023-01-26T20:17:19.754Z,12
2023-01-26T20:27:19.585Z,14
2023-01-26T20:37:19.535Z,3
2023-01-26T20:47:19.411Z,2
2023-01-26T20:57:19.440Z,1
2023-01-26T21:07:19.368Z,1
2023-01-26T21:17:19.217Z,1
2023-01-26T21:27:19.120Z,1
2023-01-26T21:37:19.177Z,1
2023-01-26T21:47:19.009Z,1
2023-01-26T21:57:18.938Z,1
2023-01-26T22:07:18.975Z,1
2023-01-26T22:17:18.771Z,1
2023-01-26T22:27:18.826Z,1
2023-01-26T22:37:18.791Z,1
2023-01-26T22:47:18.577Z,1
2023-01-26T22:57:18.526Z,1
2023-01-26T23:07:18.462Z,1
2023-01-26T23:17:18.373Z,1
2023-01-26T23:27:18.285Z,1
2023-01-26T23:37:18.206Z,1
2023-01-26T23:47:18.309Z,1
2023-01-26T23:57:18.164Z,4
